Avoca, Nebraska
Current Conditions -  °F | °C
As of 8:35 PM on Tuesday 25 Nov 2014 (Local Time) from KPMV Reporting Station
Overcast Overcast  
Wind Chill: 30°   Ceiling: 7000
Heat Index: 37°   Visibility: 10mi
Dew Point: 23°   Wind: 10mph
Humidity: 56%   Direction: 150°SSE
Pressure: 29.92"   Gusts: 18mph
Location:  40.8°N, 96.12°W
Report Text: KPMV 260235Z AUTO 15009G16KT 10SM SCT048 BKN070 OVC080 03/M05 A2992 RMK AO2 T00281052
Loading
Personal Weather Stations






























Interactive Weather Map New forecast layout! Learn more

10-Day Weather Forecast

Advertisements
Track Severe Weather on mobile